Parma — V2OZ9 — position and weather

sailwx.info

Track history (hours):
 
Tides and Currents Weather Stations Pressure Air Temp Water Temp Dewpoint Dewpoint Depression Visibility Wind Speed Wind Dir Waves Ship Positions

Parma

Last reported at 2016-Jul-24 06:04 UTC. Time now 2016-Jul-25 15:54 UTC.
Position N 45°54' W 004°45'.

MMSI: 279073176.

Date/timePositionNaut miles runAvg speedWind from/ knotsBaromVisibWave heightAir tempDewpointWater temp
2016-Jul-24 06:04N 45°54' W 004°45'610.5
2016-Jul-24 05:27N 46°00' W 004°48'1010.4
2016-Jul-24 04:32N 46°09' W 004°52'1010.4
2016-Jul-24 03:33N 46°19' W 004°56'3310.6
2016-Jul-24 00:27N 46°50' W 005°09'1010.8
2016-Jul-23 23:33N 46°60' W 005°13'1110.9
2016-Jul-23 22:30N 47°11' W 005°19'1211.5
2016-Jul-23 21:26N 47°22' W 005°23'100 9.1
2016-Jul-23 10:30N 49°02' W 005°23'38 8.9
2016-Jul-23 06:14N 49°22' W 004°34'25 9.3
2016-Jul-23 03:31N 49°35' W 003°60'2311.8
2016-Jul-23 01:33N 49°46' W 003°29'1111.4
2016-Jul-23 00:34N 49°52' W 003°13'1010.0
2016-Jul-22 23:34N 49°56' W 002°59'17 8.3
2016-Jul-22 21:33N 50°01' W 002°35'6310.3
2016-Jul-22 15:28N 49°45' W 001°01'1312.7
2016-Jul-22 14:26N 49°39' W 000°42'1011.5
2016-Jul-22 13:33N 49°35' W 000°28'1010.1
2016-Jul-22 12:33N 49°31' W 000°14'10 9.6
2016-Jul-22 11:33N 49°28' W 000°00'1010.3
2016-Jul-22 10:33N 49°26' E 000°15'8 8.1
2016-Jul-22 09:33N 49°28' E 000°27'8 7.5
2016-Jul-22 08:33N 49°27' E 000°39'6 1.4
2016-Jul-22 04:13N 49°31' E 000°46'8 0.3
2016-Jul-21 00:32N 49°26' E 000°35'9 8.8
2016-Jul-20 23:33N 49°26' E 000°22'1211.5
2016-Jul-20 22:33N 49°26' E 000°04'7 7.4
2016-Jul-20 21:33N 49°28' W 000°07'0 0.3
2016-Jul-20 20:32N 49°28' W 000°06'0 0.1
2016-Jul-20 19:32N 49°28' W 000°06'0 0.1
2016-Jul-20 18:32N 49°28' W 000°06'0 0.0
2016-Jul-20 17:32N 49°28' W 000°06'0 0.1
2016-Jul-20 16:32N 49°28' W 000°07'0 0.0
2016-Jul-20 15:32N 49°28' W 000°07'0 0.0
2016-Jul-20 14:32N 49°28' W 000°07'0 0.1
2016-Jul-20 13:32N 49°28' W 000°06'0 0.0
2016-Jul-20 12:32N 49°28' W 000°06'0 0.1
2016-Jul-20 11:32N 49°28' W 000°06'0 0.0
2016-Jul-20 10:32N 49°28' W 000°06'0 0.0
2016-Jul-20 09:32N 49°28' W 000°06'0 0.0
2016-Jul-20 08:32N 49°28' W 000°06'0 0.0
2016-Jul-20 07:32N 49°28' W 000°06'0 0.0
2016-Jul-20 06:32N 49°28' W 000°06'0 0.1
2016-Jul-20 05:32N 49°28' W 000°06'0 0.0
2016-Jul-20 04:32N 49°28' W 000°06'0 0.0
2016-Jul-20 03:32N 49°28' W 000°06'0 0.0
2016-Jul-20 02:32N 49°28' W 000°07'0 0.0
2016-Jul-20 01:32N 49°28' W 000°07'0 0.0
2016-Jul-20 00:32N 49°28' W 000°07'0 0.1
2016-Jul-19 23:32N 49°28' W 000°06'0 0.0
2016-Jul-19 22:29N 49°28' W 000°06'0 0.0
2016-Jul-19 21:32N 49°28' W 000°06'0 0.0
2016-Jul-19 20:32N 49°28' W 000°06'0 0.0
2016-Jul-19 19:32N 49°28' W 000°06'0 0.0
2016-Jul-19 18:32N 49°28' W 000°06'0 0.1
2016-Jul-19 17:32N 49°28' W 000°06'0 0.1
2016-Jul-19 16:32N 49°28' W 000°07'0 0.0
2016-Jul-19 15:32N 49°28' W 000°07'0 0.0
2016-Jul-19 14:32N 49°28' W 000°07'0 0.0
2016-Jul-19 13:32N 49°28' W 000°07'0 0.0
2016-Jul-19 12:32N 49°28' W 000°06'0 0.0
2016-Jul-19 11:32N 49°28' W 000°06'0 0.1
2016-Jul-19 10:32N 49°28' W 000°06'0 0.0
2016-Jul-19 09:32N 49°28' W 000°06'0 0.0
2016-Jul-19 08:32N 49°28' W 000°06'0 0.0
2016-Jul-19 07:32N 49°28' W 000°06'15 5.0
2016-Jul-19 04:33N 49°35' W 000°27'9 8.8
2016-Jul-19 03:33N 49°38' W 000°39'8 7.7
2016-Jul-19 02:33N 49°41' W 000°50'7 7.3
2016-Jul-19 01:33N 49°44' W 001°00'6 6.4
2016-Jul-19 00:33N 49°47' W 001°09'6 5.8
2016-Jul-18 23:33N 49°49' W 001°18'7 7.3
2016-Jul-18 22:33N 49°51' W 001°29'2510.5
2016-Jul-18 20:10N 49°53' W 002°07'711.8
2016-Jul-18 19:34N 49°53' W 002°19'1211.7
2016-Jul-18 18:30N 49°51' W 002°37'1111.3
2016-Jul-18 17:33N 49°48' W 002°53'1110.6
2016-Jul-18 16:33N 49°43' W 003°07'1010.3
2016-Jul-18 15:33N 49°37' W 003°21'1010.1
2016-Jul-18 14:32N 49°32' W 003°35'11 9.7
2016-Jul-18 13:26N 49°27' W 003°49'8 9.3
2016-Jul-18 12:33N 49°23' W 004°00'10 8.8
2016-Jul-18 11:23N 49°18' W 004°14'11 8.4
2016-Jul-18 10:06N 49°12' W 004°28'31 8.0
2016-Jul-18 06:19N 48°57' W 005°08'7 9.0
2016-Jul-18 05:33N 48°54' W 005°17'10 9.5
2016-Jul-18 04:32N 48°49' W 005°30'4510.2
2016-Jul-18 00:08N 48°10' W 006°04'  
2016-Jul-15 07:33N 38°57' W 009°52'9 9.3
2016-Jul-15 06:33N 38°47' W 009°52'9 9.5
2016-Jul-15 05:33N 38°38' W 009°50'9 9.2
2016-Jul-15 04:33N 38°29' W 009°47'9 9.2
2016-Jul-15 03:33N 38°20' W 009°45'9 9.4
2016-Jul-15 02:33N 38°11' W 009°42'10 9.7
2016-Jul-15 01:33N 38°02' W 009°39'9 9.2
2016-Jul-15 00:33N 37°53' W 009°36'9 8.9
2016-Jul-14 23:32N 37°44' W 009°34'9 9.0
2016-Jul-14 22:33N 37°35' W 009°31'9 9.3
2016-Jul-14 21:33N 37°26' W 009°29'10 9.4
2016-Jul-14 20:33N 37°17' W 009°26'9 9.2
2016-Jul-14 19:33N 37°08' W 009°23'9 9.2
2016-Jul-14 18:33N 36°59' W 009°21'9 8.6
2016-Jul-14 17:33N 36°51' W 009°17'9 9.0
2016-Jul-14 16:33N 36°45' W 009°09'  
Track history (hours):
 
Tides and Currents Weather Stations Pressure Air Temp Water Temp Dewpoint Dewpoint Depression Visibility Wind Speed Wind Dir Waves Ship Positions

Parma

Last reported at 2016-Jul-24 06:04 UTC. Time now 2016-Jul-25 15:54 UTC.
Position N 45°54' W 004°45'.

MMSI: 279073176.

Date/timePositionNaut miles runAvg speedWind from/ knotsBaromVisibWave heightAir tempDewpointWater temp
2016-Jul-24 06:04N 45°54' W 004°45'610.5
2016-Jul-24 05:27N 46°00' W 004°48'1010.4
2016-Jul-24 04:32N 46°09' W 004°52'1010.4
2016-Jul-24 03:33N 46°19' W 004°56'3310.6
2016-Jul-24 00:27N 46°50' W 005°09'1010.8
2016-Jul-23 23:33N 46°60' W 005°13'1110.9
2016-Jul-23 22:30N 47°11' W 005°19'1211.5
2016-Jul-23 21:26N 47°22' W 005°23'100 9.1
2016-Jul-23 10:30N 49°02' W 005°23'38 8.9
2016-Jul-23 06:14N 49°22' W 004°34'25 9.3
2016-Jul-23 03:31N 49°35' W 003°60'2311.8
2016-Jul-23 01:33N 49°46' W 003°29'1111.4
2016-Jul-23 00:34N 49°52' W 003°13'1010.0
2016-Jul-22 23:34N 49°56' W 002°59'17 8.3
2016-Jul-22 21:33N 50°01' W 002°35'6310.3
2016-Jul-22 15:28N 49°45' W 001°01'1312.7
2016-Jul-22 14:26N 49°39' W 000°42'1011.5
2016-Jul-22 13:33N 49°35' W 000°28'1010.1
2016-Jul-22 12:33N 49°31' W 000°14'10 9.6
2016-Jul-22 11:33N 49°28' W 000°00'1010.3
2016-Jul-22 10:33N 49°26' E 000°15'8 8.1
2016-Jul-22 09:33N 49°28' E 000°27'8 7.5
2016-Jul-22 08:33N 49°27' E 000°39'6 1.4
2016-Jul-22 04:13N 49°31' E 000°46'8 0.3
2016-Jul-21 00:32N 49°26' E 000°35'9 8.8
2016-Jul-20 23:33N 49°26' E 000°22'1211.5
2016-Jul-20 22:33N 49°26' E 000°04'7 7.4
2016-Jul-20 21:33N 49°28' W 000°07'0 0.3
2016-Jul-20 20:32N 49°28' W 000°06'0 0.1
2016-Jul-20 19:32N 49°28' W 000°06'0 0.1
2016-Jul-20 18:32N 49°28' W 000°06'0 0.0
2016-Jul-20 17:32N 49°28' W 000°06'0 0.1
2016-Jul-20 16:32N 49°28' W 000°07'0 0.0
2016-Jul-20 15:32N 49°28' W 000°07'0 0.0
2016-Jul-20 14:32N 49°28' W 000°07'0 0.1
2016-Jul-20 13:32N 49°28' W 000°06'0 0.0
2016-Jul-20 12:32N 49°28' W 000°06'0 0.1
2016-Jul-20 11:32N 49°28' W 000°06'0 0.0
2016-Jul-20 10:32N 49°28' W 000°06'0 0.0
2016-Jul-20 09:32N 49°28' W 000°06'0 0.0
2016-Jul-20 08:32N 49°28' W 000°06'0 0.0
2016-Jul-20 07:32N 49°28' W 000°06'0 0.0
2016-Jul-20 06:32N 49°28' W 000°06'0 0.1
2016-Jul-20 05:32N 49°28' W 000°06'0 0.0
2016-Jul-20 04:32N 49°28' W 000°06'0 0.0
2016-Jul-20 03:32N 49°28' W 000°06'0 0.0
2016-Jul-20 02:32N 49°28' W 000°07'0 0.0
2016-Jul-20 01:32N 49°28' W 000°07'0 0.0
2016-Jul-20 00:32N 49°28' W 000°07'0 0.1
2016-Jul-19 23:32N 49°28' W 000°06'0 0.0
2016-Jul-19 22:29N 49°28' W 000°06'0 0.0
2016-Jul-19 21:32N 49°28' W 000°06'0 0.0
2016-Jul-19 20:32N 49°28' W 000°06'0 0.0
2016-Jul-19 19:32N 49°28' W 000°06'0 0.0
2016-Jul-19 18:32N 49°28' W 000°06'0 0.1
2016-Jul-19 17:32N 49°28' W 000°06'0 0.1
2016-Jul-19 16:32N 49°28' W 000°07'0 0.0
2016-Jul-19 15:32N 49°28' W 000°07'0 0.0
2016-Jul-19 14:32N 49°28' W 000°07'0 0.0
2016-Jul-19 13:32N 49°28' W 000°07'0 0.0
2016-Jul-19 12:32N 49°28' W 000°06'0 0.0
2016-Jul-19 11:32N 49°28' W 000°06'0 0.1
2016-Jul-19 10:32N 49°28' W 000°06'0 0.0
2016-Jul-19 09:32N 49°28' W 000°06'0 0.0
2016-Jul-19 08:32N 49°28' W 000°06'0 0.0
2016-Jul-19 07:32N 49°28' W 000°06'15 5.0
2016-Jul-19 04:33N 49°35' W 000°27'9 8.8
2016-Jul-19 03:33N 49°38' W 000°39'8 7.7
2016-Jul-19 02:33N 49°41' W 000°50'7 7.3
2016-Jul-19 01:33N 49°44' W 001°00'6 6.4
2016-Jul-19 00:33N 49°47' W 001°09'6 5.8
2016-Jul-18 23:33N 49°49' W 001°18'7 7.3
2016-Jul-18 22:33N 49°51' W 001°29'2510.5
2016-Jul-18 20:10N 49°53' W 002°07'711.8
2016-Jul-18 19:34N 49°53' W 002°19'1211.7
2016-Jul-18 18:30N 49°51' W 002°37'1111.3
2016-Jul-18 17:33N 49°48' W 002°53'1110.6
2016-Jul-18 16:33N 49°43' W 003°07'1010.3
2016-Jul-18 15:33N 49°37' W 003°21'1010.1
2016-Jul-18 14:32N 49°32' W 003°35'11 9.7
2016-Jul-18 13:26N 49°27' W 003°49'8 9.3
2016-Jul-18 12:33N 49°23' W 004°00'10 8.8
2016-Jul-18 11:23N 49°18' W 004°14'11 8.4
2016-Jul-18 10:06N 49°12' W 004°28'31 8.0
2016-Jul-18 06:19N 48°57' W 005°08'7 9.0
2016-Jul-18 05:33N 48°54' W 005°17'10 9.5
2016-Jul-18 04:32N 48°49' W 005°30'4510.2
2016-Jul-18 00:08N 48°10' W 006°04'  
2016-Jul-15 07:33N 38°57' W 009°52'9 9.3
2016-Jul-15 06:33N 38°47' W 009°52'9 9.5
2016-Jul-15 05:33N 38°38' W 009°50'9 9.2
2016-Jul-15 04:33N 38°29' W 009°47'9 9.2
2016-Jul-15 03:33N 38°20' W 009°45'9 9.4
2016-Jul-15 02:33N 38°11' W 009°42'10 9.7
2016-Jul-15 01:33N 38°02' W 009°39'9 9.2
2016-Jul-15 00:33N 37°53' W 009°36'9 8.9
2016-Jul-14 23:32N 37°44' W 009°34'9 9.0
2016-Jul-14 22:33N 37°35' W 009°31'9 9.3
2016-Jul-14 21:33N 37°26' W 009°29'10 9.4
2016-Jul-14 20:33N 37°17' W 009°26'9 9.2
2016-Jul-14 19:33N 37°08' W 009°23'9 9.2
2016-Jul-14 18:33N 36°59' W 009°21'9 8.6
2016-Jul-14 17:33N 36°51' W 009°17'9 9.0
2016-Jul-14 16:33N 36°45' W 009°09'  

Dump ship's entire track history